createdAt,value
2024-04-16T00:00:52.272Z,698.00
2024-04-16T00:01:52.325Z,700.00
2024-04-16T00:02:52.352Z,696.00
2024-04-16T00:03:52.269Z,699.00
2024-04-16T00:04:52.355Z,700.00
2024-04-16T00:05:52.287Z,702.00
2024-04-16T00:06:52.303Z,704.00
2024-04-16T00:07:53.106Z,704.00
2024-04-16T00:08:52.326Z,705.00
2024-04-16T00:09:52.344Z,703.00
2024-04-16T00:10:52.431Z,704.00
2024-04-16T00:11:52.367Z,706.00
2024-04-16T00:12:52.378Z,708.00
2024-04-16T00:13:52.413Z,706.00
2024-04-16T00:14:52.418Z,706.00
2024-04-16T00:15:52.424Z,705.00
2024-04-16T00:16:52.498Z,703.00
2024-04-16T00:17:52.525Z,704.00
2024-04-16T00:18:52.463Z,705.00
2024-04-16T00:19:52.484Z,703.00
2024-04-16T00:20:52.509Z,702.00
2024-04-16T00:21:52.535Z,703.00
2024-04-16T00:22:52.550Z,701.00
2024-04-16T00:23:52.561Z,700.00
2024-04-16T00:24:52.576Z,697.00
2024-04-16T00:25:52.613Z,698.00
2024-04-16T00:26:52.615Z,696.00
2024-04-16T00:27:52.648Z,696.00
2024-04-16T00:28:52.659Z,697.00
2024-04-16T00:29:52.676Z,694.00
2024-04-16T00:30:52.695Z,691.00
2024-04-16T00:31:52.764Z,691.00
2024-04-16T00:32:52.737Z,693.00
2024-04-16T00:33:52.749Z,696.00
2024-04-16T00:34:52.773Z,698.00
2024-04-16T00:35:52.797Z,698.00
2024-04-16T00:36:52.798Z,699.00
2024-04-16T00:37:52.824Z,697.00
2024-04-16T00:38:52.855Z,695.00
2024-04-16T00:39:52.850Z,696.00
2024-04-16T00:40:52.876Z,695.00
2024-04-16T00:41:52.897Z,697.00
2024-04-16T00:42:52.923Z,697.00
2024-04-16T00:43:52.936Z,696.00
2024-04-16T00:44:52.997Z,696.00
2024-04-16T00:45:52.981Z,696.00
2024-04-16T00:46:53.014Z,697.00
2024-04-16T00:47:53.121Z,698.00
2024-04-16T00:48:53.035Z,697.00
2024-04-16T00:49:53.056Z,697.00
2024-04-16T00:50:53.092Z,699.00
2024-04-16T00:51:53.111Z,701.00
2024-04-16T00:52:53.116Z,702.00
2024-04-16T00:53:53.127Z,704.00
2024-04-16T00:54:53.147Z,704.00
2024-04-16T00:55:53.159Z,702.00
2024-04-16T00:56:53.186Z,697.00
2024-04-16T00:57:53.216Z,696.00
2024-04-16T00:58:53.233Z,696.00
2024-04-16T00:59:53.282Z,696.00
2024-04-16T01:00:53.393Z,695.00
2024-04-16T01:01:53.330Z,697.00
2024-04-16T01:02:53.356Z,698.00
2024-04-16T01:03:53.370Z,696.00
2024-04-16T01:04:53.402Z,693.00
2024-04-16T01:05:53.391Z,695.00
2024-04-16T01:06:53.418Z,695.00
2024-04-16T01:07:53.444Z,694.00
2024-04-16T01:08:53.454Z,697.00
2024-04-16T01:09:53.482Z,698.00
2024-04-16T01:10:53.527Z,700.00
2024-04-16T01:11:53.510Z,701.00
2024-04-16T01:12:53.532Z,699.00
2024-04-16T01:13:53.547Z,694.00
2024-04-16T01:14:53.579Z,694.00
2024-04-16T01:15:53.589Z,695.00
2024-04-16T01:16:53.610Z,696.00
2024-04-16T01:17:53.660Z,695.00
2024-04-16T01:18:53.666Z,694.00
2024-04-16T01:19:53.684Z,694.00
2024-04-16T01:20:53.689Z,695.00
2024-04-16T01:21:53.718Z,696.00
2024-04-16T01:22:53.738Z,696.00
2024-04-16T01:23:53.751Z,695.00
2024-04-16T01:24:53.775Z,694.00
2024-04-16T01:25:53.777Z,693.00
2024-04-16T01:26:53.809Z,692.00
2024-04-16T01:27:53.830Z,695.00
2024-04-16T01:28:53.857Z,698.00
2024-04-16T01:29:53.862Z,700.00
2024-04-16T01:30:53.864Z,701.00
2024-04-16T01:31:53.959Z,701.00
2024-04-16T01:32:53.943Z,701.00
2024-04-16T01:33:54.000Z,702.00
2024-04-16T01:34:53.954Z,704.00
2024-04-16T01:35:53.968Z,704.00
2024-04-16T01:36:53.990Z,704.00
2024-04-16T01:37:54.008Z,703.00
2024-04-16T01:38:54.021Z,702.00
2024-04-16T01:39:54.041Z,701.00
2024-04-16T01:40:54.044Z,700.00
2024-04-16T01:41:54.068Z,697.00
2024-04-16T01:42:54.063Z,697.00
2024-04-16T01:43:54.076Z,698.00
2024-04-16T01:44:54.102Z,697.00
2024-04-16T01:45:54.106Z,696.00
2024-04-16T01:46:54.134Z,695.00
2024-04-16T01:47:54.239Z,696.00
2024-04-16T01:48:54.142Z,695.00
2024-04-16T01:49:54.160Z,694.00
2024-04-16T01:50:54.172Z,693.00
2024-04-16T01:51:54.187Z,692.00
2024-04-16T01:52:54.194Z,691.00
2024-04-16T01:53:54.199Z,693.00
2024-04-16T01:54:54.215Z,695.00
2024-04-16T01:55:54.254Z,695.00
2024-04-16T01:56:54.241Z,695.00
2024-04-16T01:57:54.259Z,697.00
2024-04-16T01:58:54.300Z,695.00
2024-04-16T01:59:54.288Z,697.00
2024-04-16T02:00:54.298Z,698.00
2024-04-16T02:01:54.385Z,699.00
2024-04-16T02:02:54.352Z,696.00
2024-04-16T02:03:54.365Z,697.00
2024-04-16T02:04:54.391Z,699.00
2024-04-16T02:05:54.360Z,698.00
2024-04-16T02:06:54.359Z,697.00
2024-04-16T02:07:54.382Z,697.00
2024-04-16T02:08:54.383Z,696.00
2024-04-16T02:09:54.398Z,693.00
2024-04-16T02:10:54.411Z,694.00
2024-04-16T02:11:54.429Z,694.00
2024-04-16T02:12:54.440Z,696.00
2024-04-16T02:13:54.441Z,695.00
2024-04-16T02:14:54.449Z,693.00
2024-04-16T02:15:54.458Z,693.00
2024-04-16T02:16:54.465Z,694.00
2024-04-16T02:17:54.569Z,693.00
2024-04-16T02:18:54.499Z,694.00
2024-04-16T02:19:54.507Z,693.00
2024-04-16T02:20:54.523Z,689.00
2024-04-16T02:21:54.528Z,688.00
2024-04-16T02:22:54.544Z,688.00
2024-04-16T02:23:54.539Z,688.00
2024-04-16T02:24:54.553Z,686.00
2024-04-16T02:25:54.558Z,688.00
2024-04-16T02:26:54.568Z,689.00
2024-04-16T02:27:54.571Z,692.00
2024-04-16T02:28:54.578Z,692.00
2024-04-16T02:29:54.595Z,690.00
2024-04-16T02:30:54.616Z,690.00
2024-04-16T02:31:54.667Z,690.00
2024-04-16T02:32:54.673Z,691.00
2024-04-16T02:33:54.641Z,693.00
2024-04-16T02:34:54.658Z,692.00
2024-04-16T02:35:54.658Z,689.00
2024-04-16T02:36:54.663Z,688.00
2024-04-16T02:37:54.676Z,689.00
2024-04-16T02:38:54.688Z,688.00
2024-04-16T02:39:54.704Z,687.00
2024-04-16T02:40:54.730Z,690.00
2024-04-16T02:41:54.724Z,689.00
2024-04-16T02:42:54.754Z,689.00
2024-04-16T02:43:54.746Z,688.00
2024-04-16T02:44:54.759Z,687.00
2024-04-16T02:45:54.765Z,688.00
2024-04-16T02:46:54.832Z,688.00
2024-04-16T02:47:54.859Z,689.00
2024-04-16T02:48:54.809Z,689.00
2024-04-16T02:49:54.839Z,688.00
2024-04-16T02:50:54.828Z,689.00
2024-04-16T02:51:54.840Z,688.00
2024-04-16T02:52:54.853Z,685.00
2024-04-16T02:53:54.872Z,687.00
2024-04-16T02:54:54.899Z,684.00
2024-04-16T02:55:54.937Z,680.00
2024-04-16T02:56:54.956Z,680.00
2024-04-16T02:57:55.001Z,680.00
2024-04-16T02:58:55.009Z,680.00
2024-04-16T02:59:55.041Z,679.00
2024-04-16T03:00:55.066Z,674.00
2024-04-16T03:01:55.131Z,671.00
2024-04-16T03:02:55.286Z,673.00
2024-04-16T03:03:55.156Z,673.00
2024-04-16T03:04:55.189Z,674.00
2024-04-16T03:05:55.211Z,674.00
2024-04-16T03:06:55.236Z,675.00
2024-04-16T03:07:55.263Z,675.00
2024-04-16T03:08:55.295Z,677.00
2024-04-16T03:09:55.334Z,677.00
2024-04-16T03:10:55.366Z,676.00
2024-04-16T03:11:55.372Z,676.00
2024-04-16T03:12:55.389Z,674.00
2024-04-16T03:13:55.416Z,675.00
2024-04-16T03:14:55.450Z,676.00
2024-04-16T03:15:55.511Z,678.00
2024-04-16T03:16:55.594Z,679.00
2024-04-16T03:17:55.521Z,678.00
2024-04-16T03:18:55.539Z,681.00
2024-04-16T03:19:55.556Z,678.00
2024-04-16T03:20:55.578Z,677.00
2024-04-16T03:21:55.595Z,674.00
2024-04-16T03:22:55.632Z,673.00
2024-04-16T03:23:55.662Z,674.00
2024-04-16T03:24:55.667Z,676.00
2024-04-16T03:25:55.703Z,676.00
2024-04-16T03:26:55.730Z,676.00
2024-04-16T03:27:55.737Z,676.00
2024-04-16T03:28:55.780Z,677.00
2024-04-16T03:29:55.794Z,678.00
2024-04-16T03:30:55.812Z,680.00
2024-04-16T03:31:55.878Z,681.00
2024-04-16T03:32:55.888Z,680.00
2024-04-16T03:33:55.889Z,680.00
2024-04-16T03:34:55.942Z,680.00
2024-04-16T03:35:55.970Z,681.00
2024-04-16T03:36:55.948Z,682.00
2024-04-16T03:38:18.000Z,682.00
2024-04-16T03:38:56.015Z,683.00
2024-04-16T03:39:56.026Z,679.00
2024-04-16T03:40:56.042Z,681.00
2024-04-16T03:41:56.058Z,684.00
2024-04-16T03:42:56.058Z,683.00
2024-04-16T03:43:57.292Z,680.00
2024-04-16T03:44:56.076Z,675.00
2024-04-16T03:45:56.084Z,673.00
2024-04-16T03:46:56.099Z,676.00
2024-04-16T03:47:56.144Z,676.00
2024-04-16T03:48:56.115Z,678.00
2024-04-16T03:49:56.122Z,676.00
2024-04-16T03:50:56.163Z,678.00
2024-04-16T03:51:56.144Z,680.00
2024-04-16T03:52:56.164Z,680.00
2024-04-16T03:53:56.175Z,681.00
2024-04-16T03:54:56.204Z,678.00
2024-04-16T03:55:56.198Z,676.00
2024-04-16T03:56:56.219Z,675.00
2024-04-16T03:57:56.215Z,675.00
2024-04-16T03:58:56.219Z,671.00
2024-04-16T03:59:56.242Z,673.00
2024-04-16T04:00:56.297Z,674.00
2024-04-16T04:01:56.255Z,673.00
2024-04-16T04:02:56.286Z,673.00
2024-04-16T04:03:56.265Z,672.00
2024-04-16T04:04:56.302Z,672.00
2024-04-16T04:05:56.283Z,673.00
2024-04-16T04:06:56.281Z,673.00
2024-04-16T04:07:56.278Z,674.00
2024-04-16T04:08:56.285Z,674.00
2024-04-16T04:09:56.299Z,671.00
2024-04-16T04:10:56.337Z,670.00
2024-04-16T04:11:56.296Z,673.00
2024-04-16T04:12:56.304Z,674.00
2024-04-16T04:13:56.322Z,672.00
2024-04-16T04:14:56.331Z,670.00
2024-04-16T04:15:56.339Z,670.00
2024-04-16T04:16:56.359Z,670.00
2024-04-16T04:17:56.491Z,673.00
2024-04-16T04:18:56.369Z,673.00
2024-04-16T04:19:56.380Z,674.00
2024-04-16T04:20:56.399Z,674.00
2024-04-16T04:21:56.402Z,675.00
2024-04-16T04:22:56.431Z,677.00
2024-04-16T04:23:56.431Z,676.00
2024-04-16T04:24:56.441Z,675.00
2024-04-16T04:25:56.449Z,675.00
2024-04-16T04:26:56.454Z,675.00
2024-04-16T04:27:56.492Z,675.00
2024-04-16T04:28:56.482Z,676.00
2024-04-16T04:29:56.494Z,675.00
2024-04-16T04:30:56.508Z,676.00
2024-04-16T04:31:56.557Z,675.00
2024-04-16T04:32:56.559Z,671.00
2024-04-16T04:33:56.550Z,671.00
2024-04-16T04:34:56.543Z,671.00
2024-04-16T04:35:56.566Z,676.00
2024-04-16T04:36:57.236Z,674.00
2024-04-16T04:37:56.573Z,676.00
2024-04-16T04:38:56.582Z,671.00
2024-04-16T04:39:56.592Z,671.00
2024-04-16T04:40:56.595Z,673.00
2024-04-16T04:41:56.622Z,674.00
2024-04-16T04:42:56.684Z,672.00
2024-04-16T04:43:56.632Z,673.00
2024-04-16T04:44:56.661Z,676.00
2024-04-16T04:45:56.666Z,673.00
2024-04-16T04:46:56.670Z,672.00
2024-04-16T04:47:56.908Z,673.00
2024-04-16T04:48:56.695Z,672.00
2024-04-16T04:50:04.036Z,665.00
2024-04-16T04:51:04.032Z,664.00
2024-04-16T04:52:04.125Z,660.00
2024-04-16T04:53:04.162Z,658.00
2024-04-16T04:54:04.095Z,659.00
2024-04-16T04:55:04.186Z,657.00
2024-04-16T04:56:04.138Z,655.00
2024-04-16T04:57:04.163Z,659.00
2024-04-16T04:58:04.250Z,657.00
2024-04-16T04:59:04.199Z,660.00
2024-04-16T05:00:04.259Z,660.00
2024-04-16T05:01:04.359Z,662.00
2024-04-16T05:02:04.421Z,663.00
2024-04-16T05:03:05.311Z,662.00
2024-04-16T05:04:04.412Z,664.00
2024-04-16T05:05:04.312Z,666.00
2024-04-16T05:06:04.326Z,669.00
2024-04-16T05:07:04.380Z,667.00
2024-04-16T05:08:04.385Z,662.00
2024-04-16T05:09:04.419Z,615.00
2024-04-16T05:10:04.506Z,615.00
2024-04-16T05:11:04.588Z,612.00
2024-04-16T05:12:04.456Z,612.00
2024-04-16T05:13:04.500Z,612.00
2024-04-16T05:14:04.493Z,609.00
2024-04-16T05:15:04.511Z,603.00
2024-04-16T05:16:04.588Z,602.00
2024-04-16T05:17:04.574Z,597.00
2024-04-16T05:18:04.621Z,594.00
2024-04-16T05:19:04.642Z,592.00
2024-04-16T05:20:04.630Z,597.00
2024-04-16T05:21:04.661Z,595.00
2024-04-16T05:22:04.701Z,595.00
2024-04-16T05:23:04.710Z,597.00
2024-04-16T05:24:04.717Z,596.00
2024-04-16T05:25:04.758Z,598.00
2024-04-16T05:26:05.601Z,602.00
2024-04-16T05:27:04.763Z,615.00
2024-04-16T05:28:04.860Z,649.00
2024-04-16T05:29:04.822Z,657.00
2024-04-16T05:30:04.839Z,675.00
2024-04-16T05:31:04.989Z,712.00
2024-04-16T05:32:04.919Z,838.00
2024-04-16T05:33:04.908Z,831.00
2024-04-16T05:34:04.925Z,800.00
2024-04-16T05:35:06.046Z,806.00
2024-04-16T05:36:06.625Z,827.00
2024-04-16T05:37:05.638Z,836.00
2024-04-16T05:38:05.015Z,835.00
2024-04-16T05:39:05.636Z,833.00
2024-04-16T05:40:05.062Z,830.00
2024-04-16T05:41:05.068Z,828.00
2024-04-16T05:42:05.076Z,838.00
2024-04-16T05:43:05.226Z,931.00
2024-04-16T05:44:06.088Z,896.00
2024-04-16T05:45:05.129Z,877.00
2024-04-16T05:46:05.235Z,903.00
2024-04-16T05:47:05.163Z,897.00
2024-04-16T05:48:05.347Z,903.00
2024-04-16T05:49:05.295Z,930.00
2024-04-16T05:50:05.227Z,914.00
2024-04-16T05:51:05.335Z,915.00
2024-04-16T05:52:05.393Z,921.00
2024-04-16T05:53:05.441Z,912.00
2024-04-16T05:54:05.519Z,946.00
2024-04-16T05:55:05.611Z,955.00
2024-04-16T05:56:05.671Z,934.00
2024-04-16T05:57:05.753Z,927.00
2024-04-16T05:58:05.860Z,928.00
2024-04-16T05:59:05.897Z,933.00
2024-04-16T06:00:05.967Z,930.00
2024-04-16T06:01:06.092Z,930.00
2024-04-16T06:02:07.784Z,947.00
2024-04-16T06:03:06.561Z,952.00
2024-04-16T06:04:06.209Z,947.00
2024-04-16T06:05:06.150Z,945.00
2024-04-16T06:06:06.141Z,944.00
2024-04-16T06:07:06.185Z,939.00
2024-04-16T06:08:06.201Z,944.00
2024-04-16T06:09:06.198Z,947.00
2024-04-16T06:10:06.232Z,938.00
2024-04-16T06:11:06.241Z,931.00
2024-04-16T06:12:06.314Z,934.00
2024-04-16T06:13:06.331Z,934.00
2024-04-16T06:14:06.365Z,936.00
2024-04-16T06:15:08.058Z,931.00
2024-04-16T06:16:06.591Z,931.00
2024-04-16T06:17:06.560Z,929.00
2024-04-16T06:18:06.614Z,939.00
2024-04-16T06:19:06.690Z,934.00
2024-04-16T06:20:06.712Z,930.00
2024-04-16T06:21:06.759Z,918.00
2024-04-16T06:22:06.816Z,932.00
2024-04-16T06:23:06.854Z,1077.00
2024-04-16T06:24:06.919Z,1041.00
2024-04-16T06:25:07.003Z,1051.00
2024-04-16T06:26:07.659Z,1117.00
2024-04-16T06:27:07.096Z,1097.00
2024-04-16T06:28:08.163Z,1092.00
2024-04-16T06:29:07.210Z,1085.00
2024-04-16T06:30:07.240Z,1072.00
2024-04-16T06:31:07.330Z,1041.00
2024-04-16T06:32:07.372Z,1032.00
2024-04-16T06:33:07.395Z,1014.00
2024-04-16T06:34:08.076Z,946.00
2024-04-16T06:35:07.475Z,962.00
2024-04-16T06:36:08.077Z,971.00
2024-04-16T06:37:08.177Z,969.00
2024-04-16T06:38:07.628Z,954.00
2024-04-16T06:39:07.644Z,951.00
2024-04-16T06:40:07.801Z,924.00
2024-04-16T06:41:07.736Z,929.00
2024-04-16T06:42:07.785Z,904.00
2024-04-16T06:43:07.874Z,871.00
2024-04-16T06:44:07.920Z,875.00
2024-04-16T06:45:08.573Z,866.00
2024-04-16T06:46:08.030Z,877.00
2024-04-16T06:47:08.038Z,872.00
2024-04-16T06:48:08.207Z,878.00
2024-04-16T06:49:13.873Z,870.00
2024-04-16T06:50:09.195Z,882.00
2024-04-16T06:51:08.184Z,880.00
2024-04-16T06:52:08.227Z,875.00
2024-04-16T06:53:08.263Z,880.00
2024-04-16T06:54:08.235Z,876.00
2024-04-16T06:55:08.282Z,883.00
2024-04-16T06:56:08.267Z,880.00
2024-04-16T06:57:09.157Z,866.00
2024-04-16T06:58:09.329Z,875.00
2024-04-16T06:59:09.158Z,880.00
2024-04-16T07:00:09.188Z,870.00
2024-04-16T07:01:08.417Z,877.00
2024-04-16T07:02:08.426Z,883.00
2024-04-16T07:03:08.426Z,893.00
2024-04-16T07:04:08.489Z,885.00
2024-04-16T07:05:08.434Z,887.00
2024-04-16T07:06:08.464Z,887.00
2024-04-16T07:07:08.723Z,877.00
2024-04-16T07:08:08.472Z,868.00
2024-04-16T07:09:09.160Z,888.00
2024-04-16T07:10:08.538Z,937.00
2024-04-16T07:11:08.540Z,914.00
2024-04-16T07:12:08.558Z,922.00
2024-04-16T07:13:08.612Z,911.00
2024-04-16T07:14:08.588Z,905.00
2024-04-16T07:15:08.611Z,885.00
2024-04-16T07:16:08.704Z,1044.00
2024-04-16T07:17:08.713Z,978.00
2024-04-16T07:18:08.764Z,1010.00
2024-04-16T07:19:08.691Z,1014.00
2024-04-16T07:20:09.657Z,894.00
2024-04-16T07:21:08.714Z,873.00
2024-04-16T07:22:08.764Z,823.00
2024-04-16T07:23:08.734Z,907.00
2024-04-16T07:24:08.789Z,825.00
2024-04-16T07:25:09.712Z,870.00
2024-04-16T07:26:08.756Z,782.00
2024-04-16T07:27:08.800Z,803.00
2024-04-16T07:28:08.805Z,771.00
2024-04-16T07:29:08.805Z,783.00
2024-04-16T07:30:08.828Z,728.00
2024-04-16T07:32:09.034Z,697.00
2024-04-16T07:33:09.396Z,734.00
2024-04-16T07:34:09.226Z,696.00
2024-04-16T07:35:09.231Z,704.00
2024-04-16T07:36:09.291Z,669.00
2024-04-16T07:37:09.382Z,682.00
2024-04-16T07:38:09.409Z,667.00
2024-04-16T07:39:09.446Z,672.00
2024-04-16T07:40:09.507Z,657.00
2024-04-16T07:41:09.519Z,650.00
2024-04-16T07:42:09.537Z,642.00
2024-04-16T07:43:09.620Z,638.00
2024-04-16T07:44:09.595Z,627.00
2024-04-16T07:45:09.609Z,626.00
2024-04-16T07:46:09.641Z,622.00
2024-04-16T07:47:09.715Z,620.00
2024-04-16T07:48:09.835Z,614.00
2024-04-16T07:49:09.796Z,609.00
2024-04-16T07:50:09.748Z,606.00
2024-04-16T07:51:10.596Z,602.00
2024-04-16T07:52:09.824Z,602.00
2024-04-16T07:53:09.823Z,598.00
2024-04-16T07:54:09.886Z,599.00
2024-04-16T07:55:09.909Z,591.00
2024-04-16T07:56:09.924Z,591.00
2024-04-16T07:57:09.980Z,591.00
2024-04-16T07:58:10.054Z,590.00
2024-04-16T07:59:10.051Z,589.00
2024-04-16T08:00:10.087Z,587.00
2024-04-16T08:01:11.132Z,587.00
2024-04-16T08:02:10.315Z,587.00
2024-04-16T08:03:10.394Z,584.00
2024-04-16T08:04:10.422Z,583.00
2024-04-16T08:05:10.348Z,586.00
2024-04-16T08:06:10.350Z,582.00
2024-04-16T08:07:10.404Z,582.00
2024-04-16T08:08:14.650Z,582.00
2024-04-16T08:09:11.466Z,583.00
2024-04-16T08:10:10.509Z,583.00
2024-04-16T08:11:10.533Z,581.00
2024-04-16T08:12:10.538Z,583.00
2024-04-16T08:13:10.580Z,583.00
2024-04-16T08:14:10.568Z,586.00
2024-04-16T08:15:10.613Z,628.00
2024-04-16T08:16:10.921Z,624.00
2024-04-16T08:17:10.822Z,622.00
2024-04-16T08:18:10.685Z,636.00
2024-04-16T08:19:11.342Z,686.00
2024-04-16T08:20:10.888Z,687.00
2024-04-16T08:21:11.620Z,707.00
2024-04-16T08:22:13.334Z,768.00
2024-04-16T08:23:10.792Z,766.00
2024-04-16T08:24:10.798Z,754.00
2024-04-16T08:25:10.867Z,737.00
2024-04-16T08:26:12.737Z,715.00
2024-04-16T08:27:11.112Z,712.00
2024-04-16T08:28:11.237Z,710.00
2024-04-16T08:29:12.109Z,700.00
2024-04-16T08:30:12.384Z,684.00
2024-04-16T08:31:11.448Z,670.00
2024-04-16T08:32:12.218Z,665.00
2024-04-16T08:33:11.607Z,654.00
2024-04-16T08:34:11.676Z,644.00
2024-04-16T08:35:11.711Z,639.00
2024-04-16T08:36:11.859Z,623.00
2024-04-16T08:37:11.815Z,614.00
2024-04-16T08:38:12.456Z,606.00
2024-04-16T08:39:11.916Z,604.00
2024-04-16T08:40:11.919Z,599.00
2024-04-16T08:41:11.974Z,605.00
2024-04-16T08:42:12.015Z,605.00
2024-04-16T08:43:12.116Z,601.00
2024-04-16T08:44:12.168Z,596.00
2024-04-16T08:45:12.338Z,595.00
2024-04-16T08:46:12.270Z,591.00
2024-04-16T08:47:12.309Z,588.00
2024-04-16T08:48:12.407Z,587.00
2024-04-16T08:49:12.357Z,606.00
2024-04-16T08:50:12.385Z,587.00
2024-04-16T08:51:12.435Z,579.00
2024-04-16T08:52:12.506Z,577.00
2024-04-16T08:53:12.536Z,587.00
2024-04-16T08:54:12.568Z,582.00
2024-04-16T08:55:12.621Z,580.00
2024-04-16T08:56:12.715Z,588.00
2024-04-16T08:57:12.767Z,589.00
2024-04-16T08:58:34.810Z,591.00
2024-04-16T08:59:12.829Z,587.00
2024-04-16T09:00:12.868Z,586.00
2024-04-16T09:01:13.051Z,583.00
2024-04-16T09:02:12.945Z,584.00
2024-04-16T09:03:13.651Z,585.00
2024-04-16T09:04:13.102Z,585.00
2024-04-16T09:05:13.089Z,588.00
2024-04-16T09:06:13.035Z,586.00
2024-04-16T09:07:13.066Z,586.00
2024-04-16T09:08:13.134Z,578.00
2024-04-16T09:09:13.100Z,577.00
2024-04-16T09:10:13.240Z,578.00
2024-04-16T09:11:13.247Z,579.00
2024-04-16T09:12:13.219Z,576.00
2024-04-16T09:13:13.286Z,571.00
2024-04-16T09:14:13.274Z,588.00
2024-04-16T09:15:13.332Z,589.00
2024-04-16T09:16:13.376Z,585.00
2024-04-16T09:17:13.429Z,589.00
2024-04-16T09:18:13.388Z,647.00
2024-04-16T09:19:13.409Z,658.00
2024-04-16T09:20:14.157Z,658.00
2024-04-16T09:21:13.450Z,660.00
2024-04-16T09:22:13.506Z,667.00
2024-04-16T09:23:15.170Z,739.00
2024-04-16T09:24:13.538Z,743.00
2024-04-16T09:25:13.621Z,814.00
2024-04-16T09:26:13.620Z,795.00
2024-04-16T09:27:13.650Z,793.00
2024-04-16T09:28:14.475Z,846.00
2024-04-16T09:29:13.676Z,849.00
2024-04-16T09:30:13.702Z,869.00
2024-04-16T09:31:13.749Z,896.00
2024-04-16T09:32:13.758Z,911.00
2024-04-16T09:33:17.784Z,921.00
2024-04-16T09:34:17.082Z,926.00
2024-04-16T09:35:13.785Z,941.00
2024-04-16T09:36:13.815Z,950.00
2024-04-16T09:37:13.842Z,949.00
2024-04-16T09:38:13.877Z,956.00
2024-04-16T09:39:13.863Z,959.00
2024-04-16T09:40:13.970Z,965.00
2024-04-16T09:41:13.912Z,972.00
2024-04-16T09:42:13.923Z,989.00
2024-04-16T09:43:13.977Z,1012.00
2024-04-16T09:44:13.994Z,1008.00
2024-04-16T09:45:14.003Z,1011.00
2024-04-16T09:46:14.205Z,1003.00
2024-04-16T09:47:14.128Z,1000.00
2024-04-16T09:48:14.310Z,995.00
2024-04-16T09:49:15.265Z,997.00
2024-04-16T09:50:21.819Z,1050.00
2024-04-16T09:51:15.534Z,1035.00
2024-04-16T09:52:14.360Z,1029.00
2024-04-16T09:53:16.504Z,1023.00
2024-04-16T09:54:14.456Z,1025.00
2024-04-16T09:55:14.537Z,1024.00
2024-04-16T09:56:14.609Z,1033.00
2024-04-16T09:57:14.671Z,1008.00
2024-04-16T09:58:14.747Z,1013.00
2024-04-16T09:59:14.805Z,1036.00
2024-04-16T10:00:15.673Z,1022.00
2024-04-16T10:01:15.790Z,1015.00
2024-04-16T10:02:15.033Z,1012.00
2024-04-16T10:03:15.109Z,1018.00
2024-04-16T10:04:15.227Z,1032.00
2024-04-16T10:05:15.240Z,1043.00
2024-04-16T10:06:15.318Z,1042.00
2024-04-16T10:07:15.396Z,1057.00
2024-04-16T10:08:17.265Z,1052.00
2024-04-16T10:09:15.548Z,1065.00
2024-04-16T10:10:15.770Z,1016.00
2024-04-16T10:11:22.138Z,1014.00
2024-04-16T10:12:16.738Z,971.00
2024-04-16T10:13:15.751Z,902.00
2024-04-16T10:14:16.211Z,884.00
2024-04-16T10:15:15.774Z,794.00
2024-04-16T10:16:15.815Z,789.00
2024-04-16T10:17:15.809Z,790.00
2024-04-16T10:18:15.972Z,789.00
2024-04-16T10:19:15.840Z,780.00
2024-04-16T10:20:15.844Z,771.00
2024-04-16T10:21:15.886Z,754.00
2024-04-16T10:22:15.944Z,735.00
2024-04-16T10:23:15.967Z,723.00
2024-04-16T10:24:15.971Z,720.00
2024-04-16T10:25:15.990Z,713.00
2024-04-16T10:26:16.006Z,704.00
2024-04-16T10:27:16.035Z,693.00
2024-04-16T10:28:16.062Z,683.00
2024-04-16T10:29:16.069Z,673.00
2024-04-16T10:30:16.084Z,668.00
2024-04-16T10:31:16.132Z,658.00
2024-04-16T10:32:16.168Z,656.00
2024-04-16T10:33:16.301Z,661.00
2024-04-16T10:34:16.314Z,669.00
2024-04-16T10:35:16.338Z,671.00
2024-04-16T10:36:16.406Z,677.00
2024-04-16T10:37:16.498Z,676.00
2024-04-16T10:38:16.559Z,675.00
2024-04-16T10:39:16.665Z,676.00
2024-04-16T10:40:16.751Z,677.00
2024-04-16T10:41:16.799Z,678.00
2024-04-16T10:42:16.875Z,678.00
2024-04-16T10:43:19.643Z,679.00
2024-04-16T10:44:16.966Z,677.00
2024-04-16T10:45:16.996Z,677.00
2024-04-16T10:46:17.094Z,676.00
2024-04-16T10:47:17.135Z,676.00
2024-04-16T10:48:17.028Z,677.00
2024-04-16T10:49:17.103Z,677.00
2024-04-16T10:50:17.078Z,675.00
2024-04-16T10:51:17.085Z,676.00
2024-04-16T10:52:17.147Z,675.00
2024-04-16T10:53:17.139Z,671.00
2024-04-16T10:54:17.157Z,672.00
2024-04-16T10:55:17.267Z,672.00
2024-04-16T10:56:17.186Z,672.00
2024-04-16T10:57:17.224Z,671.00
2024-04-16T10:58:17.254Z,669.00
2024-04-16T10:59:17.217Z,670.00
2024-04-16T11:00:17.335Z,670.00
2024-04-16T11:01:17.405Z,670.00
2024-04-16T11:02:17.458Z,671.00
2024-04-16T11:03:17.580Z,669.00
2024-04-16T11:04:17.674Z,669.00
2024-04-16T11:05:17.736Z,668.00
2024-04-16T11:06:17.785Z,668.00
2024-04-16T11:07:17.909Z,669.00
2024-04-16T11:08:17.952Z,670.00
2024-04-16T11:09:18.038Z,669.00
2024-04-16T11:10:18.144Z,672.00
2024-04-16T11:11:18.239Z,672.00
2024-04-16T11:12:18.269Z,672.00
2024-04-16T11:13:18.384Z,670.00
2024-04-16T11:14:18.427Z,673.00
2024-04-16T11:15:18.507Z,675.00
2024-04-16T11:16:18.599Z,705.00
2024-04-16T11:17:18.741Z,708.00
2024-04-16T11:18:18.878Z,713.00
2024-04-16T11:19:18.930Z,738.00
2024-04-16T11:20:18.935Z,731.00
2024-04-16T11:21:19.009Z,721.00
2024-04-16T11:22:19.114Z,720.00
2024-04-16T11:23:19.172Z,816.00
2024-04-16T11:24:19.228Z,813.00
2024-04-16T11:25:19.426Z,796.00
2024-04-16T11:26:19.354Z,823.00
2024-04-16T11:27:19.397Z,816.00
2024-04-16T11:28:19.500Z,803.00
2024-04-16T11:29:19.541Z,780.00
2024-04-16T11:30:19.628Z,765.00
2024-04-16T11:31:19.811Z,752.00
2024-04-16T11:32:19.850Z,751.00
2024-04-16T11:33:23.417Z,746.00
2024-04-16T11:34:21.798Z,748.00
2024-04-16T11:35:19.935Z,751.00
2024-04-16T11:36:19.921Z,750.00
2024-04-16T11:37:19.977Z,749.00
2024-04-16T11:38:19.952Z,746.00
2024-04-16T11:39:19.975Z,747.00
2024-04-16T11:40:20.058Z,747.00
2024-04-16T11:41:20.948Z,747.00
2024-04-16T11:42:20.099Z,747.00
2024-04-16T11:43:20.230Z,742.00
2024-04-16T11:44:20.264Z,740.00
2024-04-16T11:45:20.314Z,739.00
2024-04-16T11:46:20.449Z,739.00
2024-04-16T11:47:20.622Z,740.00
2024-04-16T11:48:20.766Z,742.00
2024-04-16T11:49:20.692Z,743.00
2024-04-16T11:50:20.717Z,744.00
2024-04-16T11:51:20.818Z,742.00
2024-04-16T11:52:20.922Z,741.00
2024-04-16T11:53:20.936Z,742.00
2024-04-16T11:54:21.010Z,745.00
2024-04-16T11:55:21.161Z,744.00
2024-04-16T11:56:21.148Z,744.00
2024-04-16T11:57:21.216Z,746.00
2024-04-16T11:58:21.302Z,745.00
2024-04-16T11:59:21.383Z,745.00
2024-04-16T12:00:21.462Z,747.00
2024-04-16T12:01:21.638Z,748.00
2024-04-16T12:02:21.626Z,746.00
2024-04-16T12:03:21.821Z,744.00
2024-04-16T12:04:21.850Z,744.00
2024-04-16T12:05:22.033Z,743.00
2024-04-16T12:06:21.937Z,744.00
2024-04-16T12:07:22.043Z,741.00
2024-04-16T12:08:22.079Z,744.00
2024-04-16T12:09:22.182Z,744.00
2024-04-16T12:10:22.296Z,749.00
2024-04-16T12:11:22.337Z,746.00
2024-04-16T12:12:22.402Z,743.00
2024-04-16T12:13:22.616Z,741.00
2024-04-16T12:14:22.570Z,735.00
2024-04-16T12:15:22.644Z,736.00
2024-04-16T12:16:22.745Z,735.00
2024-04-16T12:17:22.771Z,734.00
2024-04-16T12:18:22.853Z,734.00
2024-04-16T12:19:22.956Z,731.00
2024-04-16T12:20:23.006Z,728.00
2024-04-16T12:21:23.089Z,725.00
2024-04-16T12:22:23.171Z,728.00
2024-04-16T12:23:23.238Z,728.00
2024-04-16T12:24:23.327Z,731.00
2024-04-16T12:25:23.427Z,730.00
2024-04-16T12:26:23.452Z,732.00
2024-04-16T12:27:23.532Z,733.00
2024-04-16T12:28:23.627Z,734.00
2024-04-16T12:29:23.670Z,732.00